Time;durP1;ratioP1;P1;durP2;ratioP2;P2;SDS_P1;SDS_P2;PMS_P1;PMS_P2;Temp;Humidity;BMP_temperature;BMP_pressure;BME280_temperature;BME280_humidity;BME280_pressure;Samples;Min_cycle;Max_cycle;Signal;HPM_P1;HPM_P2
2021/07/15 00:00:31;;;;;;;;;;;;;;;;;;2069016;27;99930;-26
2021/07/15 00:01:32;;;;;;;4.85;3.17;;;;;;;;;;2065331;28;100133;-25
2021/07/15 00:02:33;;;;;;;5.05;3.10;;;;;;;;;;2072589;28;100126;-25
2021/07/15 00:03:34;;;;;;;;;;;;;;;;;;2075528;28;100053;-25
2021/07/15 00:04:35;;;;;;;4.57;2.92;;;;;;;;;;2073955;28;100019;-26
2021/07/15 00:05:39;;;;;;;4.00;3.00;;;;;;;;;;2075101;28;99778;-26
2021/07/15 00:06:40;;;;;;;9.07;3.45;;;;;;;;;;2074887;28;100110;-26
2021/07/15 00:07:42;;;;;;;7.40;3.38;;;;;;;;;;2074451;28;100031;-26
2021/07/15 00:08:44;;;;;;;9.38;3.40;;;;;;;;;;2075197;28;100001;-26
2021/07/15 00:09:45;;;;;;;6.45;3.50;;;;;;;;;;2074509;28;100082;-25
2021/07/15 00:10:48;;;;;;;;;;;;;;;;;;2074736;28;100001;-26
2021/07/15 00:11:50;;;;;;;9.73;3.65;;;;;;;;;;2075137;28;99981;-25
2021/07/15 00:12:51;;;;;;;5.47;3.10;;;;;;;;;;2074848;28;99936;-26
2021/07/15 00:13:53;;;;;;;7.68;3.58;;;;;;;;;;2074821;28;100007;-26
2021/07/15 00:14:54;;;;;;;5.13;3.30;;;;;;;;;;2075383;28;100192;-26
2021/07/15 00:15:56;;;;;;;;;;;;;;;;;;2075208;28;100008;-26
2021/07/15 00:16:58;;;;;;;4.35;3.17;;;;;;;;;;2075519;28;99981;-25
2021/07/15 00:17:59;;;;;;;6.30;3.22;;;;;;;;;;2075079;28;99916;-26
2021/07/15 00:19:00;;;;;;;4.20;3.13;;;;;;;;;;2075246;28;100003;-26
2021/07/15 00:20:01;;;;;;;;;;;;;;;;;;2075298;28;100035;-25
2021/07/15 00:21:06;;;;;;;5.28;3.33;;;;;;;;;;2075186;28;100071;-25
2021/07/15 00:22:07;;;;;;;4.25;2.60;;;;;;;;;;2074930;28;100016;-25
2021/07/15 00:23:08;;;;;;;;;;;;;;;;;;2075897;28;99831;-25
2021/07/15 00:24:09;;;;;;;5.13;3.08;;;;;;;;;;2075379;28;100281;-26
2021/07/15 00:25:13;;;;;;;4.57;3.17;;;;;;;;;;2075092;28;100257;-26
2021/07/15 00:26:15;;;;;;;3.90;2.85;;;;;;;;;;2075258;28;100019;-25
2021/07/15 00:27:16;;;;;;;5.32;3.65;;;;;;;;;;2074784;28;100044;-25
2021/07/15 00:28:17;;;;;;;;;;;;;;;;;;2074947;28;99904;-25
2021/07/15 00:29:20;;;;;;;4.32;3.03;;;;;;;;;;2074661;28;100107;-26
2021/07/15 00:30:21;;;;;;;4.35;2.92;;;;;;;;;;2073950;28;100111;-27
2021/07/15 00:31:21;;;;;;;;;;;;;;;;;;2075634;28;99972;-25
2021/07/15 00:32:22;;;;;;;3.25;2.80;;;;;;;;;;2075140;28;99892;-26
2021/07/15 00:33:23;;;;;;;4.78;2.70;;;;;;;;;;2074842;28;100083;-26
2021/07/15 00:34:24;;;;;;;4.97;2.88;;;;;;;;;;2074749;28;99959;-25
2021/07/15 00:35:25;;;;;;;;;;;;;;;;;;2075193;28;99760;-24
2021/07/15 00:36:26;;;;;;;6.03;3.05;;;;;;;;;;2074794;28;99960;-26
2021/07/15 00:37:26;;;;;;;;;;;;;;;;;;2074028;28;100069;-26
2021/07/15 00:38:27;;;;;;;5.15;2.83;;;;;;;;;;2065780;28;99890;-26
2021/07/15 00:39:28;;;;;;;4.70;3.28;;;;;;;;;;2065720;28;99942;-26
2021/07/15 00:40:29;;;;;;;;;;;;;;;;;;2074745;28;99898;-26
2021/07/15 00:41:30;;;;;;;6.82;3.00;;;;;;;;;;2074774;28;99868;-26
2021/07/15 00:42:31;;;;;;;3.63;2.95;;;;;;;;;;2074926;28;99923;-26
2021/07/15 00:43:33;;;;;;;5.55;2.90;;;;;;;;;;2074750;28;100115;-26
2021/07/15 00:44:34;;;;;;;6.57;3.20;;;;;;;;;;2074832;28;100142;-25
2021/07/15 00:45:35;;;;;;;;;;;;;;;;;;2074990;28;99875;-25
2021/07/15 00:46:35;;;;;;;6.43;3.53;;;;;;;;;;2075071;28;100107;-26
2021/07/15 00:47:37;;;;;;;4.57;3.22;;;;;;;;;;2074485;28;99723;-25
2021/07/15 00:48:38;;;;;;;5.35;2.95;;;;;;;;;;2074717;28;99793;-25
2021/07/15 00:49:38;;;;;;;;;;;;;;;;;;2075095;28;99750;-25
2021/07/15 00:50:40;;;;;;;3.95;2.88;;;;;;;;;;2073815;28;100162;-25
2021/07/15 00:51:41;;;;;;;4.93;3.03;;;;;;;;;;2074058;28;99947;-26
2021/07/15 00:52:42;;;;;;;;;;;;;;;;;;2075054;28;99936;-26
2021/07/15 00:53:44;;;;;;;3.88;3.08;;;;;;;;;;2073780;28;100030;-25
2021/07/15 00:54:45;;;;;;;3.75;3.35;;;;;;;;;;2065939;28;100089;-26
2021/07/15 00:55:47;;;;;;;6.63;3.05;;;;;;;;;;2074081;28;99884;-25
2021/07/15 00:56:48;;;;;;;4.75;3.10;;;;;;;;;;2074345;28;100066;-25
2021/07/15 00:57:49;;;;;;;5.13;2.97;;;;;;;;;;2074400;28;99881;-25
2021/07/15 00:58:50;;;;;;;3.47;2.63;;;;;;;;;;2074014;28;100039;-25
2021/07/15 00:59:51;;;;;;;;;;;;;;;;;;2074527;28;100026;-26
2021/07/15 01:00:52;;;;;;;6.35;2.85;;;;;;;;;;2074744;28;100163;-26
2021/07/15 01:01:53;;;;;;;5.93;2.97;;;;;;;;;;2073981;28;100161;-25
2021/07/15 01:02:56;;;;;;;3.17;2.58;;;;;;;;;;2065751;28;99839;-25
2021/07/15 01:03:57;;;;;;;4.18;2.90;;;;;;;;;;2073984;28;100187;-26
2021/07/15 01:04:58;;;;;;;3.85;2.80;;;;;;;;;;2074471;28;99798;-26
2021/07/15 01:05:59;;;;;;;5.18;2.92;;;;;;;;;;2074387;28;99892;-26
2021/07/15 01:07:00;;;;;;;5.15;2.72;;;;;;;;;;2074565;28;100242;-26
2021/07/15 01:08:05;;;;;;;6.38;3.10;;;;;;;;;;2074269;28;99901;-26
2021/07/15 01:09:06;;;;;;;5.38;3.00;;;;;;;;;;2074659;28;99913;-26
2021/07/15 01:10:08;;;;;;;;;;;;;;;;;;2074727;28;100061;-26
2021/07/15 01:11:38;;;;;;;2.83;2.53;;;;;;;;;;2074772;28;99834;-26
2021/07/15 01:13:00;;;;;;;4.25;3.10;;;;;;;;;;2073393;28;100073;-25
2021/07/15 01:14:07;;;;;;;4.35;3.05;;;;;;;;;;2064101;28;100101;-26
2021/07/15 01:15:18;;;;;;;4.82;2.92;;;;;;;;;;2073551;28;99848;-26
2021/07/15 01:16:28;;;;;;;4.00;2.88;;;;;;;;;;2073846;28;100015;-26
2021/07/15 01:17:37;;;;;;;4.45;3.15;;;;;;;;;;2067109;28;99877;-26
2021/07/15 01:18:51;;;;;;;6.45;3.08;;;;;;;;;;2073800;28;99927;-26
2021/07/15 01:20:26;;;;;;;2.60;2.30;;;;;;;;;;2074154;28;99881;-26
2021/07/15 01:21:45;;;;;;;3.42;2.85;;;;;;;;;;2074294;28;99951;-24
2021/07/15 01:23:28;;;;;;;4.00;2.90;;;;;;;;;;2073862;28;99959;-24
2021/07/15 01:24:47;;;;;;;5.13;2.58;;;;;;;;;;2067006;28;100280;-24
2021/07/15 01:26:07;;;;;;;3.20;2.70;;;;;;;;;;2074527;28;99750;-24
2021/07/15 01:27:45;;;;;;;4.65;2.60;;;;;;;;;;2074181;28;99749;-24
2021/07/15 01:29:03;;;;;;;4.05;2.78;;;;;;;;;;2074555;28;99798;-24
2021/07/15 01:30:12;;;;;;;3.90;2.75;;;;;;;;;;2074612;28;99988;-24
2021/07/15 01:31:15;;;;;;;5.28;3.17;;;;;;;;;;2074465;28;99941;-24
2021/07/15 01:32:19;;;;;;;3.42;2.70;;;;;;;;;;2073876;28;99930;-25
2021/07/15 01:33:33;;;;;;;4.85;2.97;;;;;;;;;;2073449;28;100022;-24
2021/07/15 01:34:35;;;;;;;5.38;2.80;;;;;;;;;;2074311;28;99985;-25
2021/07/15 01:35:43;;;;;;;3.85;2.80;;;;;;;;;;2074114;28;99952;-24
2021/07/15 01:36:49;;;;;;;3.45;3.00;;;;;;;;;;2074615;28;99956;-24
2021/07/15 01:37:54;;;;;;;2.95;2.58;;;;;;;;;;2074212;28;99893;-25
2021/07/15 01:39:01;;;;;;;4.50;2.97;;;;;;;;;;2074381;28;99795;-24
2021/07/15 01:40:04;;;;;;;2.75;2.40;;;;;;;;;;2074184;28;99906;-24
2021/07/15 01:41:13;;;;;;;5.18;3.03;;;;;;;;;;2073836;28;100026;-24
2021/07/15 01:42:17;;;;;;;7.88;3.33;;;;;;;;;;2074119;28;99814;-26
2021/07/15 01:43:25;;;;;;;3.80;3.05;;;;;;;;;;2074006;28;100088;-26
2021/07/15 01:44:29;;;;;;;4.53;2.65;;;;;;;;;;2073831;28;99937;-26
2021/07/15 01:45:31;;;;;;;3.45;2.58;;;;;;;;;;2074177;28;99963;-26
2021/07/15 01:46:33;;;;;;;4.75;2.90;;;;;;;;;;2074291;28;99901;-26
2021/07/15 01:47:35;;;;;;;3.40;2.58;;;;;;;;;;2065654;28;100146;-26
2021/07/15 01:48:37;;;;;;;2.95;2.75;;;;;;;;;;2057194;28;99911;-26
2021/07/15 01:49:41;;;;;;;2.90;2.58;;;;;;;;;;2073718;28;99880;-26
2021/07/15 01:50:43;;;;;;;2.75;2.50;;;;;;;;;;2073271;28;99974;-25
2021/07/15 01:51:44;;;;;;;4.28;2.45;;;;;;;;;;2073584;28;100189;-26
2021/07/15 01:52:47;;;;;;;4.28;2.58;;;;;;;;;;2073874;28;99957;-26
2021/07/15 01:53:49;;;;;;;3.53;2.63;;;;;;;;;;2073269;28;99840;-26
2021/07/15 01:54:51;;;;;;;2.80;2.60;;;;;;;;;;2074147;28;100006;-26
2021/07/15 01:55:52;;;;;;;4.80;2.80;;;;;;;;;;2074064;28;99977;-26
2021/07/15 01:56:54;;;;;;;3.78;2.55;;;;;;;;;;2074331;28;99962;-27
2021/07/15 01:57:56;;;;;;;3.58;2.90;;;;;;;;;;2074209;28;99909;-26
2021/07/15 01:58:58;;;;;;;3.05;2.50;;;;;;;;;;2073281;28;100062;-26
2021/07/15 01:59:59;;;;;;;2.92;2.40;;;;;;;;;;2073170;28;100284;-27
2021/07/15 02:01:02;;;;;;;3.55;2.58;;;;;;;;;;2074150;28;99968;-26
2021/07/15 02:02:05;;;;;;;2.83;2.60;;;;;;;;;;2073869;28;101309;-26
2021/07/15 02:03:08;;;;;;;3.72;2.65;;;;;;;;;;2073784;28;99888;-26
2021/07/15 02:04:12;;;;;;;3.20;2.90;;;;;;;;;;2073118;28;100060;-26
2021/07/15 02:05:14;;;;;;;4.03;2.60;;;;;;;;;;2065142;28;99874;-26
2021/07/15 02:06:16;;;;;;;2.60;2.40;;;;;;;;;;2065408;28;100001;-26
2021/07/15 02:07:18;;;;;;;3.17;2.90;;;;;;;;;;2073795;28;100019;-26
2021/07/15 02:08:20;;;;;;;4.20;2.53;;;;;;;;;;2074210;28;99960;-27
2021/07/15 02:09:23;;;;;;;2.67;2.28;;;;;;;;;;2074292;28;100017;-26
2021/07/15 02:10:26;;;;;;;3.30;2.47;;;;;;;;;;2073893;28;99945;-26
2021/07/15 02:11:33;;;;;;;3.30;3.00;;;;;;;;;;2073258;28;100120;-27
2021/07/15 02:12:36;;;;;;;3.67;2.47;;;;;;;;;;2065924;28;100075;-26
2021/07/15 02:13:38;;;;;;;4.10;3.00;;;;;;;;;;2065338;28;99827;-26
2021/07/15 02:14:39;;;;;;;5.15;2.95;;;;;;;;;;2073278;28;99930;-26
2021/07/15 02:15:41;;;;;;;3.38;2.78;;;;;;;;;;2074068;28;99988;-26
2021/07/15 02:16:48;;;;;;;3.55;2.50;;;;;;;;;;2073657;28;100122;-27
2021/07/15 02:17:49;;;;;;;2.88;2.60;;;;;;;;;;2073702;28;99902;-25
2021/07/15 02:18:51;;;;;;;3.13;2.80;;;;;;;;;;2064899;28;99946;-26
2021/07/15 02:19:54;;;;;;;4.13;3.03;;;;;;;;;;2065347;28;100013;-26
2021/07/15 02:20:57;;;;;;;3.17;2.88;;;;;;;;;;2074190;28;99867;-26
2021/07/15 02:21:58;;;;;;;4.35;2.80;;;;;;;;;;2074445;28;99845;-26
2021/07/15 02:23:00;;;;;;;4.72;3.00;;;;;;;;;;2073159;28;99900;-26
2021/07/15 02:24:03;;;;;;;4.13;2.65;;;;;;;;;;2073779;28;100337;-27
2021/07/15 02:25:06;;;;;;;5.22;3.28;;;;;;;;;;2073358;28;99811;-26
2021/07/15 02:26:07;;;;;;;3.15;2.42;;;;;;;;;;2073857;28;99761;-26
2021/07/15 02:27:10;;;;;;;3.13;2.75;;;;;;;;;;2073892;28;99985;-26
2021/07/15 02:28:14;;;;;;;4.18;2.50;;;;;;;;;;2073900;28;99786;-26
2021/07/15 02:29:15;;;;;;;3.45;2.70;;;;;;;;;;2073846;28;100869;-26
2021/07/15 02:30:16;;;;;;;;;;;;;;;;;;2073641;28;101360;-26
2021/07/15 02:31:21;;;;;;;3.63;2.70;;;;;;;;;;2073432;28;100005;-26
2021/07/15 02:32:22;;;;;;;3.97;2.40;;;;;;;;;;2073355;28;100000;-26
2021/07/15 02:33:27;;;;;;;3.45;2.50;;;;;;;;;;2073119;28;100005;-26
2021/07/15 02:34:34;;;;;;;3.22;2.60;;;;;;;;;;2074046;28;99830;-26
2021/07/15 02:35:48;;;;;;;5.15;3.15;;;;;;;;;;2074040;28;100267;-26
2021/07/15 02:36:50;;;;;;;3.67;2.47;;;;;;;;;;2073979;28;100301;-26
2021/07/15 02:37:56;;;;;;;2.97;2.55;;;;;;;;;;2073896;28;100070;-26
2021/07/15 02:38:59;;;;;;;3.88;2.75;;;;;;;;;;2074217;28;99782;-26
2021/07/15 02:40:00;;;;;;;4.38;2.63;;;;;;;;;;2073996;28;100026;-26
2021/07/15 02:41:01;;;;;;;3.20;2.58;;;;;;;;;;2073082;28;100035;-26
2021/07/15 02:42:02;;;;;;;4.78;2.88;;;;;;;;;;2073404;28;100148;-26
2021/07/15 02:43:04;;;;;;;3.72;2.88;;;;;;;;;;2073250;28;99970;-26
2021/07/15 02:44:06;;;;;;;4.88;2.97;;;;;;;;;;2072961;28;99896;-26
2021/07/15 02:45:08;;;;;;;3.30;2.60;;;;;;;;;;2074089;28;99953;-27
2021/07/15 02:46:09;;;;;;;3.05;2.65;;;;;;;;;;2073864;28;99730;-26
2021/07/15 02:47:10;;;;;;;3.00;2.70;;;;;;;;;;2073748;28;99928;-27
2021/07/15 02:48:14;;;;;;;2.92;2.65;;;;;;;;;;2073913;28;100166;-26
2021/07/15 02:49:15;;;;;;;3.38;2.70;;;;;;;;;;2073705;28;99945;-27
2021/07/15 02:50:17;;;;;;;;;;;;;;;;;;2073369;28;100125;-26
2021/07/15 02:51:18;;;;;;;2.50;2.30;;;;;;;;;;2065139;28;99835;-26
2021/07/15 02:52:19;;;;;;;;;;;;;;;;;;2073635;28;99967;-27
2021/07/15 02:53:20;;;;;;;3.00;2.67;;;;;;;;;;2073023;28;99944;-26
2021/07/15 02:54:21;;;;;;;2.88;2.63;;;;;;;;;;2073365;28;99927;-26
2021/07/15 02:55:23;;;;;;;;;;;;;;;;;;2074097;28;100026;-26
2021/07/15 02:56:28;;;;;;;;;;;;;;;;;;2074317;28;99899;-26
2021/07/15 02:57:40;;;;;;;4.10;2.25;;;;;;;;;;2073860;28;100152;-26
2021/07/15 02:58:56;;;;;;;2.58;2.30;;;;;;;;;;2074015;28;99959;-26
2021/07/15 03:00:08;;;;;;;4.22;2.78;;;;;;;;;;2074044;28;100183;-26
2021/07/15 03:01:15;;;;;;;3.05;2.75;;;;;;;;;;2073877;28;99789;-26
2021/07/15 03:02:31;;;;;;;3.08;2.35;;;;;;;;;;2073516;28;100304;-26
2021/07/15 03:03:54;;;;;;;4.15;2.42;;;;;;;;;;2074049;28;100044;-26
2021/07/15 03:05:09;;;;;;;3.63;2.95;;;;;;;;;;2072866;28;99873;-26
2021/07/15 03:06:14;;;;;;;3.80;2.83;;;;;;;;;;2073448;28;99942;-26
2021/07/15 03:07:15;;;;;;;3.45;2.75;;;;;;;;;;2073783;28;101173;-26
2021/07/15 03:08:30;;;;;;;3.47;2.70;;;;;;;;;;2073613;28;99984;-26
2021/07/15 03:09:33;;;;;;;3.03;2.65;;;;;;;;;;2073288;28;100085;-27
2021/07/15 03:10:36;;;;;;;4.50;2.63;;;;;;;;;;2067287;28;101855;-26
2021/07/15 03:12:08;;;;;;;2.70;2.50;;;;;;;;;;2065154;28;100273;-26
2021/07/15 03:13:10;;;;;;;2.97;2.72;;;;;;;;;;2061619;28;101006;-26
2021/07/15 03:14:13;;;;;;;2.92;2.17;;;;;;;;;;2065519;28;99872;-26
2021/07/15 03:15:14;;;;;;;3.28;2.70;;;;;;;;;;2064958;28;100605;-26
2021/07/15 03:16:17;;;;;;;4.15;2.97;;;;;;;;;;2065262;28;100097;-26
2021/07/15 03:17:25;;;;;;;2.70;2.50;;;;;;;;;;2065358;28;99913;-26
2021/07/15 03:18:28;;;;;;;3.28;2.72;;;;;;;;;;2064939;28;99797;-26
2021/07/15 03:19:31;;;;;;;3.20;2.88;;;;;;;;;;2064122;28;100034;-26
2021/07/15 03:20:36;;;;;;;3.05;2.55;;;;;;;;;;2064380;28;100044;-27
2021/07/15 03:21:41;;;;;;;2.78;2.15;;;;;;;;;;2065270;28;100045;-26
2021/07/15 03:22:50;;;;;;;2.40;2.20;;;;;;;;;;2065211;28;99999;-26
2021/07/15 03:23:54;;;;;;;3.17;2.60;;;;;;;;;;2065264;28;100088;-26
2021/07/15 03:25:02;;;;;;;4.25;2.70;;;;;;;;;;2064302;28;100057;-27
2021/07/15 03:26:05;;;;;;;2.70;2.35;;;;;;;;;;2064281;28;100136;-26
2021/07/15 03:27:08;;;;;;;4.28;2.50;;;;;;;;;;2065309;28;99791;-26
2021/07/15 03:28:12;;;;;;;2.78;2.47;;;;;;;;;;2065404;28;99808;-26
2021/07/15 03:29:14;;;;;;;3.88;2.75;;;;;;;;;;2065089;28;99970;-26
2021/07/15 03:30:16;;;;;;;2.90;2.60;;;;;;;;;;2064818;28;100176;-26
2021/07/15 03:31:17;;;;;;;3.33;2.53;;;;;;;;;;2065165;28;100011;-26
2021/07/15 03:32:19;;;;;;;2.72;2.28;;;;;;;;;;2064417;28;100126;-26
2021/07/15 03:33:22;;;;;;;2.90;2.60;;;;;;;;;;2064337;28;100095;-26
2021/07/15 03:34:26;;;;;;;2.90;2.20;;;;;;;;;;2064916;28;99988;-26
2021/07/15 03:35:27;;;;;;;2.60;2.40;;;;;;;;;;2065263;28;99826;-27
2021/07/15 03:36:28;;;;;;;3.58;2.58;;;;;;;;;;2065309;28;99921;-26
2021/07/15 03:37:29;;;;;;;2.92;2.70;;;;;;;;;;2066212;28;99845;-27
2021/07/15 03:38:37;;;;;;;3.10;2.33;;;;;;;;;;2065842;28;101327;-26
2021/07/15 03:39:39;;;;;;;5.45;2.55;;;;;;;;;;2066212;28;100103;-26
2021/07/15 03:40:40;;;;;;;3.70;2.63;;;;;;;;;;2066460;28;99986;-26
2021/07/15 03:41:43;;;;;;;3.20;2.90;;;;;;;;;;2066395;28;99915;-26
2021/07/15 03:42:45;;;;;;;4.10;2.50;;;;;;;;;;2066480;28;99908;-26
2021/07/15 03:43:47;;;;;;;2.40;2.20;;;;;;;;;;2066468;28;100139;-26
2021/07/15 03:44:48;;;;;;;3.90;2.50;;;;;;;;;;2066518;28;99977;-26
2021/07/15 03:45:50;;;;;;;3.85;2.63;;;;;;;;;;2066239;28;100005;-30
2021/07/15 03:46:53;;;;;;;3.03;2.63;;;;;;;;;;2066389;28;100065;-26
2021/07/15 03:47:55;;;;;;;3.22;2.85;;;;;;;;;;2066541;28;100161;-26
2021/07/15 03:48:57;;;;;;;2.78;2.47;;;;;;;;;;2066559;28;100803;-26
2021/07/15 03:49:59;;;;;;;3.67;2.50;;;;;;;;;;2065913;28;99852;-26
2021/07/15 03:51:05;;;;;;;2.92;2.70;;;;;;;;;;2065551;28;100105;-26
2021/07/15 03:52:10;;;;;;;3.42;2.50;;;;;;;;;;2065736;28;99846;-26
2021/07/15 03:53:12;;;;;;;3.13;2.35;;;;;;;;;;2066082;28;99960;-26
2021/07/15 03:54:14;;;;;;;2.80;2.60;;;;;;;;;;2065995;28;100022;-26
2021/07/15 03:55:16;;;;;;;4.22;2.75;;;;;;;;;;2066021;28;99965;-26
2021/07/15 03:56:19;;;;;;;3.13;2.50;;;;;;;;;;2066730;28;99797;-26
2021/07/15 03:57:24;;;;;;;3.00;2.70;;;;;;;;;;2066764;28;99916;-27
2021/07/15 03:58:26;;;;;;;3.40;2.70;;;;;;;;;;2066597;28;99824;-26
2021/07/15 03:59:29;;;;;;;2.60;2.40;;;;;;;;;;2066620;28;99932;-26
2021/07/15 04:00:30;;;;;;;3.42;2.65;;;;;;;;;;2066281;28;99949;-26
2021/07/15 04:01:32;;;;;;;2.80;2.60;;;;;;;;;;2066043;28;99863;-25
2021/07/15 04:02:37;;;;;;;2.85;2.65;;;;;;;;;;2065571;28;100105;-26
2021/07/15 04:03:40;;;;;;;2.95;2.40;;;;;;;;;;2066091;28;100121;-26
2021/07/15 04:04:57;;;;;;;3.08;2.38;;;;;;;;;;2066427;28;99956;-26
2021/07/15 04:06:00;;;;;;;2.65;2.45;;;;;;;;;;2066033;28;100032;-26
2021/07/15 04:07:03;;;;;;;3.15;2.65;;;;;;;;;;2057592;28;99978;-26
2021/07/15 04:08:06;;;;;;;3.50;2.70;;;;;;;;;;2065820;28;100130;-27
2021/07/15 04:09:09;;;;;;;2.78;2.58;;;;;;;;;;2066592;28;100117;-26
2021/07/15 04:10:12;;;;;;;2.58;2.28;;;;;;;;;;2066868;28;100253;-26
2021/07/15 04:11:16;;;;;;;2.60;2.33;;;;;;;;;;2066556;28;99940;-26
2021/07/15 04:12:22;;;;;;;3.10;2.30;;;;;;;;;;2066790;28;99781;-26
2021/07/15 04:13:27;;;;;;;2.45;2.25;;;;;;;;;;2066059;28;100297;-26
2021/07/15 04:15:00;;;;;;;2.60;2.40;;;;;;;;;;2066665;28;99826;-26
2021/07/15 04:16:25;;;;;;;3.42;2.55;;;;;;;;;;2065553;28;100017;-27
2021/07/15 04:18:00;;;;;;;3.38;2.55;;;;;;;;;;2066107;28;100024;-26
2021/07/15 04:19:05;;;;;;;3.90;2.63;;;;;;;;;;2049296;28;100222;-26
2021/07/15 04:20:09;;;;;;;2.75;2.30;;;;;;;;;;2061895;28;100072;-26
2021/07/15 04:21:13;;;;;;;2.88;2.67;;;;;;;;;;2066509;28;99939;-26
2021/07/15 04:22:14;;;;;;;3.00;2.72;;;;;;;;;;2066346;28;99881;-26
2021/07/15 04:23:18;;;;;;;2.67;2.40;;;;;;;;;;2065841;28;100192;-24
2021/07/15 04:24:19;;;;;;;3.35;2.65;;;;;;;;;;2065956;28;100048;-27
2021/07/15 04:25:22;;;;;;;3.15;2.50;;;;;;;;;;2065688;28;99970;-26
2021/07/15 04:26:24;;;;;;;3.35;2.60;;;;;;;;;;2057417;28;100003;-26
2021/07/15 04:27:27;;;;;;;2.70;2.45;;;;;;;;;;2065817;28;99949;-27
2021/07/15 04:28:29;;;;;;;2.63;2.42;;;;;;;;;;2066540;28;99895;-27
2021/07/15 04:29:31;;;;;;;3.25;2.70;;;;;;;;;;2066006;28;100202;-26
2021/07/15 04:30:32;;;;;;;2.67;2.40;;;;;;;;;;2065134;28;100352;-28
2021/07/15 04:31:36;;;;;;;2.58;2.38;;;;;;;;;;2066378;28;99986;-26
2021/07/15 04:32:49;;;;;;;2.97;2.33;;;;;;;;;;2066611;28;100072;-27
2021/07/15 04:33:50;;;;;;;2.88;2.10;;;;;;;;;;2066632;28;100287;-26
2021/07/15 04:34:52;;;;;;;3.53;2.80;;;;;;;;;;2066302;28;99967;-27
2021/07/15 04:35:56;;;;;;;2.45;2.25;;;;;;;;;;2065169;28;100049;-26
2021/07/15 04:36:58;;;;;;;2.83;2.53;;;;;;;;;;2065885;28;100002;-27
2021/07/15 04:38:00;;;;;;;4.30;2.40;;;;;;;;;;2065705;28;99918;-27
2021/07/15 04:39:02;;;;;;;2.67;2.47;;;;;;;;;;2065730;28;100071;-26
2021/07/15 04:40:06;;;;;;;3.20;2.45;;;;;;;;;;2066490;28;100004;-27
2021/07/15 04:41:08;;;;;;;2.50;2.30;;;;;;;;;;2065462;28;100025;-27
2021/07/15 04:42:10;;;;;;;2.33;2.10;;;;;;;;;;2065940;28;99982;-27
2021/07/15 04:43:11;;;;;;;2.72;2.45;;;;;;;;;;2066369;28;99971;-27
2021/07/15 04:44:13;;;;;;;2.40;2.20;;;;;;;;;;2066500;28;100135;-26
2021/07/15 04:45:16;;;;;;;2.90;2.30;;;;;;;;;;2066041;28;100007;-27
2021/07/15 04:46:18;;;;;;;2.80;2.60;;;;;;;;;;2057178;28;99900;-27
2021/07/15 04:47:22;;;;;;;2.50;2.30;;;;;;;;;;2057773;28;99948;-26
2021/07/15 04:48:23;;;;;;;2.60;2.33;;;;;;;;;;2065681;28;99938;-27
2021/07/15 04:49:24;;;;;;;2.90;2.60;;;;;;;;;;2066414;28;99876;-27
2021/07/15 04:50:31;;;;;;;2.47;2.05;;;;;;;;;;2065838;28;100099;-27
2021/07/15 04:51:33;;;;;;;2.40;2.20;;;;;;;;;;2066139;28;99816;-27
2021/07/15 04:52:35;;;;;;;2.10;2.00;;;;;;;;;;2066510;28;99886;-27
2021/07/15 04:53:36;;;;;;;2.53;2.33;;;;;;;;;;2066338;28;99957;-26
2021/07/15 04:54:38;;;;;;;;;;;;;;;;;;2066751;28;100097;-26
2021/07/15 04:55:41;;;;;;;2.88;2.30;;;;;;;;;;2066236;28;99785;-27
2021/07/15 04:56:42;;;;;;;2.85;2.58;;;;;;;;;;2066090;28;100246;-26
2021/07/15 04:57:44;;;;;;;3.10;2.65;;;;;;;;;;2066169;28;100852;-26
2021/07/15 04:58:45;;;;;;;2.92;2.42;;;;;;;;;;2066364;28;99771;-26
2021/07/15 04:59:47;;;;;;;2.50;2.30;;;;;;;;;;2066236;28;99847;-27
2021/07/15 05:00:48;;;;;;;3.08;2.22;;;;;;;;;;2066489;28;99769;-27
2021/07/15 05:01:50;;;;;;;2.58;2.38;;;;;;;;;;2057066;28;100132;-26
2021/07/15 05:02:58;;;;;;;2.58;2.38;;;;;;;;;;2057590;28;100146;-27
2021/07/15 05:03:59;;;;;;;3.17;2.58;;;;;;;;;;2066582;28;100270;-26
2021/07/15 05:05:01;;;;;;;2.53;2.33;;;;;;;;;;2066260;28;99959;-26
2021/07/15 05:06:04;;;;;;;3.05;2.38;;;;;;;;;;2066083;28;100059;-26
2021/07/15 05:07:05;;;;;;;3.05;2.40;;;;;;;;;;2073372;28;100021;-26
2021/07/15 05:08:07;;;;;;;2.60;2.40;;;;;;;;;;2073984;28;100026;-27
2021/07/15 05:09:08;;;;;;;2.97;2.40;;;;;;;;;;2073470;28;99872;-27
2021/07/15 05:10:10;;;;;;;;;;;;;;;;;;2074151;28;100046;-26
2021/07/15 05:11:12;;;;;;;2.95;2.17;;;;;;;;;;2074682;28;100203;-26
2021/07/15 05:12:13;;;;;;;3.40;2.50;;;;;;;;;;2074568;28;99910;-27
2021/07/15 05:13:14;;;;;;;;;;;;;;;;;;2075133;28;100048;-26
2021/07/15 05:14:15;;;;;;;2.45;2.25;;;;;;;;;;2074458;28;99897;-27
2021/07/15 05:15:16;;;;;;;2.83;2.63;;;;;;;;;;2074400;28;99921;-27
2021/07/15 05:16:18;;;;;;;2.60;2.30;;;;;;;;;;2074438;28;99753;-27
2021/07/15 05:17:19;;;;;;;2.40;2.20;;;;;;;;;;2073769;28;99910;-26
2021/07/15 05:18:20;;;;;;;2.33;2.13;;;;;;;;;;2074436;28;99868;-27
2021/07/15 05:19:21;;;;;;;2.72;2.08;;;;;;;;;;2074133;28;100034;-26
2021/07/15 05:20:22;;;;;;;2.90;2.22;;;;;;;;;;2074404;28;99932;-27
2021/07/15 05:21:23;;;;;;;3.95;2.35;;;;;;;;;;2074574;28;100036;-26
2021/07/15 05:22:25;;;;;;;3.65;2.40;;;;;;;;;;2065359;28;99924;-27
2021/07/15 05:23:26;;;;;;;2.67;2.10;;;;;;;;;;2065705;28;99928;-26
2021/07/15 05:24:26;;;;;;;;;;;;;;;;;;2074768;28;100025;-26
2021/07/15 05:25:27;;;;;;;2.15;2.05;;;;;;;;;;2074560;28;99715;-26
2021/07/15 05:26:29;;;;;;;3.08;2.08;;;;;;;;;;2073880;28;99968;-26
2021/07/15 05:27:31;;;;;;;2.63;2.42;;;;;;;;;;2073701;28;100079;-26
2021/07/15 05:28:32;;;;;;;2.72;2.53;;;;;;;;;;2073634;28;100151;-27
2021/07/15 05:29:34;;;;;;;2.80;2.58;;;;;;;;;;2073643;28;99864;-26
2021/07/15 05:30:35;;;;;;;2.60;2.40;;;;;;;;;;2073901;28;99935;-26
2021/07/15 05:31:36;;;;;;;;;;;;;;;;;;2074683;28;99882;-24
2021/07/15 05:32:37;;;;;;;2.50;2.30;;;;;;;;;;2073827;28;100370;-24
2021/07/15 05:33:38;;;;;;;3.08;2.60;;;;;;;;;;2073813;28;99935;-24
2021/07/15 05:34:38;;;;;;;;;;;;;;;;;;2074550;28;99875;-24
2021/07/15 05:35:40;;;;;;;2.92;2.25;;;;;;;;;;2073686;28;100409;-24
2021/07/15 05:36:41;;;;;;;3.45;2.47;;;;;;;;;;2073719;28;100161;-24
2021/07/15 05:37:43;;;;;;;;;;;;;;;;;;2074325;28;99965;-24
2021/07/15 05:38:47;;;;;;;2.22;2.03;;;;;;;;;;2074453;28;99793;-24
2021/07/15 05:39:50;;;;;;;2.30;1.98;;;;;;;;;;2073842;28;99872;-24
2021/07/15 05:40:51;;;;;;;3.38;2.40;;;;;;;;;;2065410;28;99944;-24
2021/07/15 05:41:51;;;;;;;;;;;;;;;;;;2073752;28;99962;-24
2021/07/15 05:42:52;;;;;;;3.03;2.63;;;;;;;;;;2074039;28;100065;-24
2021/07/15 05:43:53;;;;;;;;;;;;;;;;;;2074706;28;99905;-24
2021/07/15 05:44:55;;;;;;;2.45;2.25;;;;;;;;;;2074598;28;99939;-24
2021/07/15 05:45:56;;;;;;;3.22;2.50;;;;;;;;;;2073254;28;100084;-24
2021/07/15 05:46:56;;;;;;;;;;;;;;;;;;2074233;28;100046;-24
2021/07/15 05:47:57;;;;;;;2.63;2.40;;;;;;;;;;2073989;28;100028;-24
2021/07/15 05:48:58;;;;;;;3.90;2.40;;;;;;;;;;2074098;28;99859;-24
2021/07/15 05:49:59;;;;;;;;;;;;;;;;;;2065776;28;99882;-25
2021/07/15 05:51:00;;;;;;;2.45;2.25;;;;;;;;;;2065350;28;100034;-24
2021/07/15 05:52:03;;;;;;;3.10;2.80;;;;;;;;;;2073446;28;99984;-24
2021/07/15 05:53:03;;;;;;;2.72;2.53;;;;;;;;;;2073429;28;100462;-24
2021/07/15 05:54:04;;;;;;;;;;;;;;;;;;2073989;28;100179;-24
2021/07/15 05:55:06;;;;;;;2.83;2.42;;;;;;;;;;2073879;28;99793;-24
2021/07/15 05:56:07;;;;;;;3.63;2.53;;;;;;;;;;2073888;28;100155;-24
2021/07/15 05:57:08;;;;;;;;;;;;;;;;;;2074043;28;99888;-24
2021/07/15 05:58:09;;;;;;;2.67;2.47;;;;;;;;;;2073282;28;99988;-24
2021/07/15 05:59:10;;;;;;;;;;;;;;;;;;2074670;28;99995;-24
2021/07/15 06:00:13;;;;;;;3.70;2.40;;;;;;;;;;2073593;28;99990;-24
2021/07/15 06:01:14;;;;;;;2.90;2.60;;;;;;;;;;2073931;28;99854;-24
2021/07/15 06:02:18;;;;;;;2.92;2.40;;;;;;;;;;2073715;28;99914;-24
2021/07/15 06:03:22;;;;;;;2.33;2.00;;;;;;;;;;2074123;28;100056;-24
2021/07/15 06:04:23;;;;;;;;;;;;;;;;;;2074087;28;100145;-24
2021/07/15 06:05:25;;;;;;;2.90;2.50;;;;;;;;;;2073834;28;100027;-24
2021/07/15 06:06:26;;;;;;;3.50;3.10;;;;;;;;;;2073205;28;100055;-24
2021/07/15 06:07:27;;;;;;;7.10;3.83;;;;;;;;;;2074332;28;99793;-24
2021/07/15 06:08:28;;;;;;;;;;;;;;;;;;2073652;28;99887;-24
2021/07/15 06:09:29;;;;;;;4.53;3.53;;;;;;;;;;2065099;28;101555;-24
2021/07/15 06:10:30;;;;;;;4.22;3.75;;;;;;;;;;2065660;28;100017;-24
2021/07/15 06:11:31;;;;;;;;;;;;;;;;;;2066194;28;99791;-24
2021/07/15 06:12:32;;;;;;;3.50;3.20;;;;;;;;;;2065694;28;99768;-24
2021/07/15 06:13:33;;;;;;;5.13;3.53;;;;;;;;;;2065126;28;99831;-24
2021/07/15 06:14:34;;;;;;;;;;;;;;;;;;2065313;28;100053;-24
2021/07/15 06:15:35;;;;;;;6.15;3.70;;;;;;;;;;2065966;28;100115;-24
2021/07/15 06:16:36;;;;;;;5.35;3.30;;;;;;;;;;2065698;28;99812;-24
2021/07/15 06:17:37;;;;;;;4.45;3.63;;;;;;;;;;2073242;28;99978;-24
2021/07/15 06:18:56;;;;;;;5.18;3.75;;;;;;;;;;2070669;28;100090;-25
2021/07/15 06:19:57;;;;;;;;;;;;;;;;;;2066406;28;100023;-25
2021/07/15 06:21:01;;;;;;;5.72;3.40;;;;;;;;;;2057241;28;100135;-25
2021/07/15 06:22:02;;;;;;;4.93;3.67;;;;;;;;;;2057256;28;99907;-26
2021/07/15 06:23:03;;;;;;;7.03;3.95;;;;;;;;;;2065397;28;100097;-25
2021/07/15 06:24:04;;;;;;;6.93;3.50;;;;;;;;;;2065691;28;99928;-25